Navios Ray — 3EMH7 — position and weather

sailwx.info

Track history (hours):
 
Tides and Currents Weather Stations Pressure Air Temp Water Temp Dewpoint Dewpoint Depression Visibility Wind Speed Wind Dir Waves Ship Positions

Navios Ray

Last reported at 2018-Jan-10 06:31 UTC. Time now 2018-Jan-20 07:15 UTC.
Position N 50°57' W 006°03'.
Warning: this ship's position is 10 days out of date.

Length 292 m; draft 11 m.

Type: Cargo ship. MMSI: 373325000.

Date/timePositionNaut miles runAvg speedWind from/ knotsBaromVisibWave heightAir tempDewpointWater temp
2018-Jan-10 06:31N 50°57' W 006°03'110.7
2018-Jan-10 06:28N 50°58' W 006°02'511.0
2018-Jan-10 06:00N 51°00' W 005°56'510.8
2018-Jan-10 05:31N 51°02' W 005°48'510.9
2018-Jan-10 05:00N 51°05' W 005°40'511.0
2018-Jan-10 04:31N 51°08' W 005°32'611.1
2018-Jan-10 04:00N 51°10' W 005°24'611.5
2018-Jan-10 03:30N 51°13' W 005°16'611.6
2018-Jan-10 02:59N 51°16' W 005°08'611.6
2018-Jan-10 02:30N 51°18' W 004°60'611.5
2018-Jan-10 01:58N 51°20' W 004°51'611.9
2018-Jan-10 01:30N 51°22' W 004°42'711.6
2018-Jan-10 00:57N 51°24' W 004°32'511.8
2018-Jan-10 00:29N 51°25' W 004°24'711.7
2018-Jan-09 23:51N 51°27' W 004°12'611.4
2018-Jan-09 23:18N 51°29' W 004°03'410.1
2018-Jan-09 22:52N 51°31' W 003°56'  
2018-Jan-05 19:32N 51°33' W 003°53'2 7.7
2018-Jan-05 19:17N 51°32' W 003°55'3 8.7
2018-Jan-05 18:59N 51°30' W 003°58'4 1.0
2018-Jan-05 14:41N 51°29' W 004°05'0 0.6
2018-Jan-05 14:30N 51°29' W 004°05'0 0.3
2018-Jan-05 14:00N 51°29' W 004°05'0 0.1
2018-Jan-05 13:29N 51°29' W 004°05'0 0.0
2018-Jan-05 12:52N 51°29' W 004°05'0 0.0
2018-Jan-05 12:25N 51°29' W 004°05'0 0.0
2018-Jan-05 11:54N 51°29' W 004°05'0 0.0
2018-Jan-05 10:38N 51°29' W 004°05'0 0.7
2018-Jan-05 10:20N 51°29' W 004°05'0 0.0
2018-Jan-05 02:14N 51°29' W 004°05'0 0.7
2018-Jan-05 01:59N 51°29' W 004°05'0 0.3
2018-Jan-05 01:21N 51°29' W 004°05'0 0.0
2018-Jan-04 21:53N 51°29' W 004°05'0 0.6
2018-Jan-04 21:30N 51°29' W 004°05'0 0.0
2018-Jan-04 13:59N 51°29' W 004°05'0 0.6
2018-Jan-04 13:18N 51°29' W 004°06'0 0.4
2018-Jan-04 12:53N 51°29' W 004°06'1 2.0
2018-Jan-04 12:28N 51°29' W 004°07'3 5.8
2018-Jan-04 11:56N 51°28' W 004°12'3 6.8
2018-Jan-04 11:29N 51°27' W 004°16'4 8.9
2018-Jan-04 11:00N 51°26' W 004°23'4 8.2
2018-Jan-04 10:30N 51°24' W 004°29'4 6.5
2018-Jan-04 09:56N 51°23' W 004°35'3 7.9
2018-Jan-04 09:30N 51°22' W 004°40'4 8.2
2018-Jan-04 09:00N 51°21' W 004°46'4 8.6
2018-Jan-04 08:30N 51°20' W 004°53'4 8.8
2018-Jan-04 08:00N 51°18' W 004°59'4 8.5
2018-Jan-04 07:30N 51°14' W 005°03'5 9.0
2018-Jan-04 07:00N 51°10' W 005°06'5 9.5
2018-Jan-04 06:30N 51°06' W 005°10'510.1
2018-Jan-04 06:00N 51°02' W 005°14'4 8.9
2018-Jan-04 05:30N 50°58' W 005°18'4 8.8
2018-Jan-04 05:00N 50°54' W 005°21'4 8.5
2018-Jan-04 04:30N 50°50' W 005°24'4 9.0
2018-Jan-04 04:00N 50°46' W 005°28'4 8.8
2018-Jan-04 03:30N 50°43' W 005°31'4 8.8
2018-Jan-04 03:00N 50°39' W 005°35'4 8.8
2018-Jan-04 02:30N 50°35' W 005°39'4 8.5
2018-Jan-04 02:00N 50°31' W 005°42'4 8.6
2018-Jan-04 01:30N 50°28' W 005°46'510.6
2018-Jan-04 01:00N 50°24' W 005°51'510.1
2018-Jan-04 00:30N 50°19' W 005°53'510.2
2018-Jan-04 00:00N 50°14' W 005°53'510.2
2018-Jan-03 23:29N 50°08' W 005°53'510.1
2018-Jan-03 22:59N 50°03' W 005°53'5 9.4
2018-Jan-03 22:30N 49°59' W 005°53'8 8.4
2018-Jan-03 21:33N 49°52' W 005°48'3 8.2
2018-Jan-03 21:14N 49°51' W 005°44'2 7.4
2018-Jan-03 21:00N 49°51' W 005°41'4 7.3
2018-Jan-03 20:29N 49°51' W 005°35'3 7.2
2018-Jan-03 20:00N 49°51' W 005°30'3 6.6
2018-Jan-03 19:30N 49°50' W 005°25'3 6.1
2018-Jan-03 18:56N 49°50' W 005°20'3 5.8
2018-Jan-03 18:30N 49°51' W 005°16'3 5.5
2018-Jan-03 18:00N 49°51' W 005°12'3 5.3
2018-Jan-03 17:30N 49°51' W 005°07'3 5.7
2018-Jan-03 17:00N 49°51' W 005°03'3 5.7
2018-Jan-03 16:30N 49°51' W 004°59'3 6.1
2018-Jan-03 16:00N 49°51' W 004°54'3 5.8
2018-Jan-03 15:30N 49°51' W 004°49'3 6.3
2018-Jan-03 15:00N 49°51' W 004°44'3 6.5
2018-Jan-03 14:30N 49°51' W 004°39'3 6.7
2018-Jan-03 14:00N 49°52' W 004°34'4 7.6
2018-Jan-03 13:30N 49°52' W 004°28'4 7.9
2018-Jan-03 13:00N 49°53' W 004°22'4 8.4
2018-Jan-03 12:30N 49°53' W 004°16'4 8.3
2018-Jan-03 12:00N 49°54' W 004°10'4 8.6
2018-Jan-03 11:29N 49°55' W 004°03'4 8.3
2018-Jan-03 11:00N 49°57' W 003°57'4 7.7
2018-Jan-03 10:30N 49°58' W 003°51'4 7.2
2018-Jan-03 10:00N 49°58' W 003°46'3 6.4
2018-Jan-03 09:30N 49°59' W 003°41'3 5.6
2018-Jan-03 09:00N 50°00' W 003°37'2 4.8
2018-Jan-03 08:30N 50°01' W 003°33'2 3.9
2018-Jan-03 08:00N 50°01' W 003°30'2 3.6
2018-Jan-03 07:30N 50°01' W 003°28'2 3.6
2018-Jan-03 07:00N 50°01' W 003°25'2 3.6
2018-Jan-03 06:30N 50°01' W 003°22'2 3.5
2018-Jan-03 06:00N 50°02' W 003°19'2 3.7
2018-Jan-03 05:30N 50°03' W 003°17'3 5.1
2018-Jan-03 05:00N 50°05' W 003°14'3 5.9
2018-Jan-03 04:30N 50°07' W 003°10'3 6.2
2018-Jan-03 04:00N 50°08' W 003°07'4 7.5
2018-Jan-03 03:30N 50°10' W 003°01'4 7.2
2018-Jan-03 03:00N 50°11' W 002°56'4 8.3
2018-Jan-03 02:30N 50°11' W 002°49'5 9.2
2018-Jan-03 02:00N 50°12' W 002°42'5 9.5
2018-Jan-03 01:30N 50°13' W 002°35'5 9.9
2018-Jan-03 01:00N 50°14' W 002°27'5 9.5
2018-Jan-03 00:30N 50°15' W 002°20'35 6.1
2018-Jan-02 18:47N 50°21' W 001°26'3 7.7
2018-Jan-02 18:24N 50°21' W 001°22'4 8.5
2018-Jan-02 17:56N 50°22' W 001°16'5 9.6
2018-Jan-02 17:24N 50°23' W 001°08'4 9.7
2018-Jan-02 17:00N 50°23' W 001°02'4 8.1
2018-Jan-02 16:29N 50°24' W 000°55'4 7.6
2018-Jan-02 16:00N 50°24' W 000°49'7 7.8
2018-Jan-02 15:08N 50°25' W 000°39'2 8.8
2018-Jan-02 14:52N 50°26' W 000°35'5 8.7
2018-Jan-02 14:15N 50°27' W 000°27'2 8.4
2018-Jan-02 14:00N 50°28' W 000°24'4 8.4
2018-Jan-02 13:30N 50°29' W 000°18'4 8.1
2018-Jan-02 13:00N 50°29' W 000°11'4 8.1
2018-Jan-02 12:30N 50°30' W 000°05'4 8.6
2018-Jan-02 12:00N 50°31' E 000°01'611.2
2018-Jan-02 11:30N 50°33' E 000°10'510.8
2018-Jan-02 11:00N 50°34' E 000°18'510.5
2018-Jan-02 10:30N 50°35' E 000°26'510.0
2018-Jan-02 10:00N 50°37' E 000°34'510.0
2018-Jan-02 09:31N 50°40' E 000°40'1010.4
2018-Jan-02 08:30N 50°45' E 000°54'611.3
2018-Jan-02 08:00N 50°48' E 001°02'612.2
2018-Jan-02 07:30N 50°51' E 001°10'613.2
2018-Jan-02 07:01N 50°55' E 001°18'714.3
2018-Jan-02 06:31N 51°00' E 001°26'714.6
2018-Jan-02 06:01N 51°05' E 001°35'714.0
2018-Jan-02 05:30N 51°11' E 001°42'1312.5
2018-Jan-02 04:30N 51°22' E 001°52'611.3
2018-Jan-02 04:00N 51°26' E 001°57'510.6
2018-Jan-02 03:30N 51°31' E 002°01'510.3
2018-Jan-02 03:00N 51°35' E 002°07'510.1
2018-Jan-02 02:30N 51°38' E 002°13'510.0
2018-Jan-02 01:59N 51°42' E 002°18'7011.1
2018-Jan-01 19:43N 52°29' E 003°42'211.7
2018-Jan-01 19:30N 52°30' E 003°45'4 8.6
2018-Jan-01 19:00N 52°30' E 003°52'4 7.6
2018-Jan-01 18:30N 52°30' E 003°59'4 7.8
2018-Jan-01 18:00N 52°30' E 004°05'4 7.7
2018-Jan-01 17:30N 52°30' E 004°11'15 5.8
2018-Jan-01 14:59N 52°28' E 004°35'0 0.0
2018-Jan-01 14:29N 52°28' E 004°35'0 0.0
2018-Jan-01 13:59N 52°28' E 004°35'0 0.0
2018-Jan-01 13:30N 52°28' E 004°35'0 0.0
2018-Jan-01 12:59N 52°28' E 004°35'0 0.0
2018-Jan-01 11:59N 52°28' E 004°35'0 0.0
2018-Jan-01 11:29N 52°28' E 004°35'0 0.0
2018-Jan-01 10:59N 52°28' E 004°35'0 0.0
2018-Jan-01 10:29N 52°28' E 004°35'0 0.0
2018-Jan-01 10:00N 52°28' E 004°35'0 0.0
2018-Jan-01 09:30N 52°28' E 004°35'0 0.0
2018-Jan-01 08:29N 52°28' E 004°35'0 0.0
2018-Jan-01 07:56N 52°28' E 004°35'0 0.0
2018-Jan-01 07:30N 52°28' E 004°35'0 0.0
2018-Jan-01 06:56N 52°28' E 004°35'0 0.0
2018-Jan-01 05:59N 52°28' E 004°35'0 0.0
2018-Jan-01 05:30N 52°28' E 004°35'0 0.0
2018-Jan-01 04:59N 52°28' E 004°35'0 0.0
2018-Jan-01 03:59N 52°28' E 004°35'0 0.0
2018-Jan-01 03:29N 52°28' E 004°35'0 0.0
2018-Jan-01 03:00N 52°28' E 004°35'0 0.0
2018-Jan-01 02:30N 52°28' E 004°35'0 0.0
2018-Jan-01 01:59N 52°28' E 004°35'0 0.0
2018-Jan-01 01:30N 52°28' E 004°35'0 0.0
2018-Jan-01 00:29N 52°28' E 004°35'0 0.0
2017-Dec-31 20:59N 52°28' E 004°35'0 0.0
2017-Dec-31 20:29N 52°28' E 004°35'0 0.0
2017-Dec-31 19:59N 52°28' E 004°35'0 0.0
2017-Dec-31 19:29N 52°28' E 004°35'0 0.0
2017-Dec-31 19:00N 52°28' E 004°35'0 0.0
2017-Dec-31 18:29N 52°28' E 004°35'0 0.0
2017-Dec-31 17:59N 52°28' E 004°35'0 0.0
2017-Dec-31 17:30N 52°28' E 004°35'0 0.0
2017-Dec-31 17:00N 52°28' E 004°35'0 0.0
2017-Dec-31 16:29N 52°28' E 004°35'0 0.0
2017-Dec-31 15:59N 52°28' E 004°35'0 0.0
2017-Dec-31 15:29N 52°28' E 004°35'0 0.0
2017-Dec-31 15:00N 52°28' E 004°35'0 0.0
2017-Dec-31 14:29N 52°28' E 004°35'0 0.0
2017-Dec-31 13:59N 52°28' E 004°35'0 0.0
2017-Dec-31 13:29N 52°28' E 004°35'0 0.0
2017-Dec-31 12:59N 52°28' E 004°35'0 0.0
2017-Dec-31 12:29N 52°28' E 004°35'0 0.0
2017-Dec-31 12:00N 52°28' E 004°35'0 0.0
2017-Dec-31 11:30N 52°28' E 004°35'0 0.0
2017-Dec-31 11:00N 52°28' E 004°35'0 0.0
2017-Dec-31 10:29N 52°28' E 004°35'0 0.0
2017-Dec-31 09:59N 52°28' E 004°35'0 0.0
2017-Dec-31 09:30N 52°28' E 004°35'0 0.0
2017-Dec-31 08:59N 52°28' E 004°35'0 0.0
2017-Dec-31 08:29N 52°28' E 004°35'0 0.0
2017-Dec-31 07:59N 52°28' E 004°35'0 0.0
2017-Dec-31 07:29N 52°28' E 004°35'0 0.0
2017-Dec-31 06:59N 52°28' E 004°35'  
Track history (hours):
 
Tides and Currents Weather Stations Pressure Air Temp Water Temp Dewpoint Dewpoint Depression Visibility Wind Speed Wind Dir Waves Ship Positions

Navios Ray

Last reported at 2018-Jan-10 06:31 UTC. Time now 2018-Jan-20 07:15 UTC.
Position N 50°57' W 006°03'.
Warning: this ship's position is 10 days out of date.

Length 292 m; draft 11 m.

Type: Cargo ship. MMSI: 373325000.

Date/timePositionNaut miles runAvg speedWind from/ knotsBaromVisibWave heightAir tempDewpointWater temp
2018-Jan-10 06:31N 50°57' W 006°03'110.7
2018-Jan-10 06:28N 50°58' W 006°02'511.0
2018-Jan-10 06:00N 51°00' W 005°56'510.8
2018-Jan-10 05:31N 51°02' W 005°48'510.9
2018-Jan-10 05:00N 51°05' W 005°40'511.0
2018-Jan-10 04:31N 51°08' W 005°32'611.1
2018-Jan-10 04:00N 51°10' W 005°24'611.5
2018-Jan-10 03:30N 51°13' W 005°16'611.6
2018-Jan-10 02:59N 51°16' W 005°08'611.6
2018-Jan-10 02:30N 51°18' W 004°60'611.5
2018-Jan-10 01:58N 51°20' W 004°51'611.9
2018-Jan-10 01:30N 51°22' W 004°42'711.6
2018-Jan-10 00:57N 51°24' W 004°32'511.8
2018-Jan-10 00:29N 51°25' W 004°24'711.7
2018-Jan-09 23:51N 51°27' W 004°12'611.4
2018-Jan-09 23:18N 51°29' W 004°03'410.1
2018-Jan-09 22:52N 51°31' W 003°56'  
2018-Jan-05 19:32N 51°33' W 003°53'2 7.7
2018-Jan-05 19:17N 51°32' W 003°55'3 8.7
2018-Jan-05 18:59N 51°30' W 003°58'4 1.0
2018-Jan-05 14:41N 51°29' W 004°05'0 0.6
2018-Jan-05 14:30N 51°29' W 004°05'0 0.3
2018-Jan-05 14:00N 51°29' W 004°05'0 0.1
2018-Jan-05 13:29N 51°29' W 004°05'0 0.0
2018-Jan-05 12:52N 51°29' W 004°05'0 0.0
2018-Jan-05 12:25N 51°29' W 004°05'0 0.0
2018-Jan-05 11:54N 51°29' W 004°05'0 0.0
2018-Jan-05 10:38N 51°29' W 004°05'0 0.7
2018-Jan-05 10:20N 51°29' W 004°05'0 0.0
2018-Jan-05 02:14N 51°29' W 004°05'0 0.7
2018-Jan-05 01:59N 51°29' W 004°05'0 0.3
2018-Jan-05 01:21N 51°29' W 004°05'0 0.0
2018-Jan-04 21:53N 51°29' W 004°05'0 0.6
2018-Jan-04 21:30N 51°29' W 004°05'0 0.0
2018-Jan-04 13:59N 51°29' W 004°05'0 0.6
2018-Jan-04 13:18N 51°29' W 004°06'0 0.4
2018-Jan-04 12:53N 51°29' W 004°06'1 2.0
2018-Jan-04 12:28N 51°29' W 004°07'3 5.8
2018-Jan-04 11:56N 51°28' W 004°12'3 6.8
2018-Jan-04 11:29N 51°27' W 004°16'4 8.9
2018-Jan-04 11:00N 51°26' W 004°23'4 8.2
2018-Jan-04 10:30N 51°24' W 004°29'4 6.5
2018-Jan-04 09:56N 51°23' W 004°35'3 7.9
2018-Jan-04 09:30N 51°22' W 004°40'4 8.2
2018-Jan-04 09:00N 51°21' W 004°46'4 8.6
2018-Jan-04 08:30N 51°20' W 004°53'4 8.8
2018-Jan-04 08:00N 51°18' W 004°59'4 8.5
2018-Jan-04 07:30N 51°14' W 005°03'5 9.0
2018-Jan-04 07:00N 51°10' W 005°06'5 9.5
2018-Jan-04 06:30N 51°06' W 005°10'510.1
2018-Jan-04 06:00N 51°02' W 005°14'4 8.9
2018-Jan-04 05:30N 50°58' W 005°18'4 8.8
2018-Jan-04 05:00N 50°54' W 005°21'4 8.5
2018-Jan-04 04:30N 50°50' W 005°24'4 9.0
2018-Jan-04 04:00N 50°46' W 005°28'4 8.8
2018-Jan-04 03:30N 50°43' W 005°31'4 8.8
2018-Jan-04 03:00N 50°39' W 005°35'4 8.8
2018-Jan-04 02:30N 50°35' W 005°39'4 8.5
2018-Jan-04 02:00N 50°31' W 005°42'4 8.6
2018-Jan-04 01:30N 50°28' W 005°46'510.6
2018-Jan-04 01:00N 50°24' W 005°51'510.1
2018-Jan-04 00:30N 50°19' W 005°53'510.2
2018-Jan-04 00:00N 50°14' W 005°53'510.2
2018-Jan-03 23:29N 50°08' W 005°53'510.1
2018-Jan-03 22:59N 50°03' W 005°53'5 9.4
2018-Jan-03 22:30N 49°59' W 005°53'8 8.4
2018-Jan-03 21:33N 49°52' W 005°48'3 8.2
2018-Jan-03 21:14N 49°51' W 005°44'2 7.4
2018-Jan-03 21:00N 49°51' W 005°41'4 7.3
2018-Jan-03 20:29N 49°51' W 005°35'3 7.2
2018-Jan-03 20:00N 49°51' W 005°30'3 6.6
2018-Jan-03 19:30N 49°50' W 005°25'3 6.1
2018-Jan-03 18:56N 49°50' W 005°20'3 5.8
2018-Jan-03 18:30N 49°51' W 005°16'3 5.5
2018-Jan-03 18:00N 49°51' W 005°12'3 5.3
2018-Jan-03 17:30N 49°51' W 005°07'3 5.7
2018-Jan-03 17:00N 49°51' W 005°03'3 5.7
2018-Jan-03 16:30N 49°51' W 004°59'3 6.1
2018-Jan-03 16:00N 49°51' W 004°54'3 5.8
2018-Jan-03 15:30N 49°51' W 004°49'3 6.3
2018-Jan-03 15:00N 49°51' W 004°44'3 6.5
2018-Jan-03 14:30N 49°51' W 004°39'3 6.7
2018-Jan-03 14:00N 49°52' W 004°34'4 7.6
2018-Jan-03 13:30N 49°52' W 004°28'4 7.9
2018-Jan-03 13:00N 49°53' W 004°22'4 8.4
2018-Jan-03 12:30N 49°53' W 004°16'4 8.3
2018-Jan-03 12:00N 49°54' W 004°10'4 8.6
2018-Jan-03 11:29N 49°55' W 004°03'4 8.3
2018-Jan-03 11:00N 49°57' W 003°57'4 7.7
2018-Jan-03 10:30N 49°58' W 003°51'4 7.2
2018-Jan-03 10:00N 49°58' W 003°46'3 6.4
2018-Jan-03 09:30N 49°59' W 003°41'3 5.6
2018-Jan-03 09:00N 50°00' W 003°37'2 4.8
2018-Jan-03 08:30N 50°01' W 003°33'2 3.9
2018-Jan-03 08:00N 50°01' W 003°30'2 3.6
2018-Jan-03 07:30N 50°01' W 003°28'2 3.6
2018-Jan-03 07:00N 50°01' W 003°25'2 3.6
2018-Jan-03 06:30N 50°01' W 003°22'2 3.5
2018-Jan-03 06:00N 50°02' W 003°19'2 3.7
2018-Jan-03 05:30N 50°03' W 003°17'3 5.1
2018-Jan-03 05:00N 50°05' W 003°14'3 5.9
2018-Jan-03 04:30N 50°07' W 003°10'3 6.2
2018-Jan-03 04:00N 50°08' W 003°07'4 7.5
2018-Jan-03 03:30N 50°10' W 003°01'4 7.2
2018-Jan-03 03:00N 50°11' W 002°56'4 8.3
2018-Jan-03 02:30N 50°11' W 002°49'5 9.2
2018-Jan-03 02:00N 50°12' W 002°42'5 9.5
2018-Jan-03 01:30N 50°13' W 002°35'5 9.9
2018-Jan-03 01:00N 50°14' W 002°27'5 9.5
2018-Jan-03 00:30N 50°15' W 002°20'35 6.1
2018-Jan-02 18:47N 50°21' W 001°26'3 7.7
2018-Jan-02 18:24N 50°21' W 001°22'4 8.5
2018-Jan-02 17:56N 50°22' W 001°16'5 9.6
2018-Jan-02 17:24N 50°23' W 001°08'4 9.7
2018-Jan-02 17:00N 50°23' W 001°02'4 8.1
2018-Jan-02 16:29N 50°24' W 000°55'4 7.6
2018-Jan-02 16:00N 50°24' W 000°49'7 7.8
2018-Jan-02 15:08N 50°25' W 000°39'2 8.8
2018-Jan-02 14:52N 50°26' W 000°35'5 8.7
2018-Jan-02 14:15N 50°27' W 000°27'2 8.4
2018-Jan-02 14:00N 50°28' W 000°24'4 8.4
2018-Jan-02 13:30N 50°29' W 000°18'4 8.1
2018-Jan-02 13:00N 50°29' W 000°11'4 8.1
2018-Jan-02 12:30N 50°30' W 000°05'4 8.6
2018-Jan-02 12:00N 50°31' E 000°01'611.2
2018-Jan-02 11:30N 50°33' E 000°10'510.8
2018-Jan-02 11:00N 50°34' E 000°18'510.5
2018-Jan-02 10:30N 50°35' E 000°26'510.0
2018-Jan-02 10:00N 50°37' E 000°34'510.0
2018-Jan-02 09:31N 50°40' E 000°40'1010.4
2018-Jan-02 08:30N 50°45' E 000°54'611.3
2018-Jan-02 08:00N 50°48' E 001°02'612.2
2018-Jan-02 07:30N 50°51' E 001°10'613.2
2018-Jan-02 07:01N 50°55' E 001°18'714.3
2018-Jan-02 06:31N 51°00' E 001°26'714.6
2018-Jan-02 06:01N 51°05' E 001°35'714.0
2018-Jan-02 05:30N 51°11' E 001°42'1312.5
2018-Jan-02 04:30N 51°22' E 001°52'611.3
2018-Jan-02 04:00N 51°26' E 001°57'510.6
2018-Jan-02 03:30N 51°31' E 002°01'510.3
2018-Jan-02 03:00N 51°35' E 002°07'510.1
2018-Jan-02 02:30N 51°38' E 002°13'510.0
2018-Jan-02 01:59N 51°42' E 002°18'7011.1
2018-Jan-01 19:43N 52°29' E 003°42'211.7
2018-Jan-01 19:30N 52°30' E 003°45'4 8.6
2018-Jan-01 19:00N 52°30' E 003°52'4 7.6
2018-Jan-01 18:30N 52°30' E 003°59'4 7.8
2018-Jan-01 18:00N 52°30' E 004°05'4 7.7
2018-Jan-01 17:30N 52°30' E 004°11'15 5.8
2018-Jan-01 14:59N 52°28' E 004°35'0 0.0
2018-Jan-01 14:29N 52°28' E 004°35'0 0.0
2018-Jan-01 13:59N 52°28' E 004°35'0 0.0
2018-Jan-01 13:30N 52°28' E 004°35'0 0.0
2018-Jan-01 12:59N 52°28' E 004°35'0 0.0
2018-Jan-01 11:59N 52°28' E 004°35'0 0.0
2018-Jan-01 11:29N 52°28' E 004°35'0 0.0
2018-Jan-01 10:59N 52°28' E 004°35'0 0.0
2018-Jan-01 10:29N 52°28' E 004°35'0 0.0
2018-Jan-01 10:00N 52°28' E 004°35'0 0.0
2018-Jan-01 09:30N 52°28' E 004°35'0 0.0
2018-Jan-01 08:29N 52°28' E 004°35'0 0.0
2018-Jan-01 07:56N 52°28' E 004°35'0 0.0
2018-Jan-01 07:30N 52°28' E 004°35'0 0.0
2018-Jan-01 06:56N 52°28' E 004°35'0 0.0
2018-Jan-01 05:59N 52°28' E 004°35'0 0.0
2018-Jan-01 05:30N 52°28' E 004°35'0 0.0
2018-Jan-01 04:59N 52°28' E 004°35'0 0.0
2018-Jan-01 03:59N 52°28' E 004°35'0 0.0
2018-Jan-01 03:29N 52°28' E 004°35'0 0.0
2018-Jan-01 03:00N 52°28' E 004°35'0 0.0
2018-Jan-01 02:30N 52°28' E 004°35'0 0.0
2018-Jan-01 01:59N 52°28' E 004°35'0 0.0
2018-Jan-01 01:30N 52°28' E 004°35'0 0.0
2018-Jan-01 00:29N 52°28' E 004°35'0 0.0
2017-Dec-31 20:59N 52°28' E 004°35'0 0.0
2017-Dec-31 20:29N 52°28' E 004°35'0 0.0
2017-Dec-31 19:59N 52°28' E 004°35'0 0.0
2017-Dec-31 19:29N 52°28' E 004°35'0 0.0
2017-Dec-31 19:00N 52°28' E 004°35'0 0.0
2017-Dec-31 18:29N 52°28' E 004°35'0 0.0
2017-Dec-31 17:59N 52°28' E 004°35'0 0.0
2017-Dec-31 17:30N 52°28' E 004°35'0 0.0
2017-Dec-31 17:00N 52°28' E 004°35'0 0.0
2017-Dec-31 16:29N 52°28' E 004°35'0 0.0
2017-Dec-31 15:59N 52°28' E 004°35'0 0.0
2017-Dec-31 15:29N 52°28' E 004°35'0 0.0
2017-Dec-31 15:00N 52°28' E 004°35'0 0.0
2017-Dec-31 14:29N 52°28' E 004°35'0 0.0
2017-Dec-31 13:59N 52°28' E 004°35'0 0.0
2017-Dec-31 13:29N 52°28' E 004°35'0 0.0
2017-Dec-31 12:59N 52°28' E 004°35'0 0.0
2017-Dec-31 12:29N 52°28' E 004°35'0 0.0
2017-Dec-31 12:00N 52°28' E 004°35'0 0.0
2017-Dec-31 11:30N 52°28' E 004°35'0 0.0
2017-Dec-31 11:00N 52°28' E 004°35'0 0.0
2017-Dec-31 10:29N 52°28' E 004°35'0 0.0
2017-Dec-31 09:59N 52°28' E 004°35'0 0.0
2017-Dec-31 09:30N 52°28' E 004°35'0 0.0
2017-Dec-31 08:59N 52°28' E 004°35'0 0.0
2017-Dec-31 08:29N 52°28' E 004°35'0 0.0
2017-Dec-31 07:59N 52°28' E 004°35'0 0.0
2017-Dec-31 07:29N 52°28' E 004°35'0 0.0
2017-Dec-31 06:59N 52°28' E 004°35'  

Dump ship's entire track history